MT WASHINGTON (MTW)

Elevation: 920' · LOS ANGELES R basin · Operator: Los Angeles County Fire Dept

Query executed Thursday at 20:39:19   clock

Provisional data, subject to change.
Select a sensor type for a plot of data.

Earlier

Date   /   Time   RAIN     TEMP     REL HUM     BAR PRE     FUEL MS     FUEL TP     WIND SP     WIND DR     PEAK WS     PEAK WD     SOLAR R     BAT VOL    
(PDT)INCHES   DEG F   %   INCHES   %   DEG F   MPH   DEG   MPH   DEG   W/M^2   VOLTS  
07/30/2014 21:00 5.06 70 70 -- 9 69 -- -- -- -- 0.00 12.5
07/30/2014 22:00 5.06 69 71 -- 10 69 -- -- -- -- 0.00 12.5
07/30/2014 23:00 5.06 70 68 -- 10 68 -- -- -- -- 0.00 12.4
07/31/2014 00:00 5.06 69 69 -- 11 68 -- -- -- -- 0.00 12.4
07/31/2014 01:00 5.06 69 73 -- 11 68 -- -- -- -- 0.00 12.4
07/31/2014 02:00 5.06 69 73 -- 11 67 -- -- -- -- 0.00 12.4
07/31/2014 03:00 5.06 68 78 -- 12 67 -- -- -- -- 0.00 12.4
07/31/2014 04:00 5.06 66 81 -- 13 66 -- -- -- -- 0.00 12.3
07/31/2014 05:00 5.06 67 81 -- 13 66 -- -- -- -- 0.00 12.3
07/31/2014 06:00 5.06 68 82 -- 14 67 -- -- -- -- 19.00 12.4
07/31/2014 07:00 5.06 73 68 -- 13 71 -- -- -- -- 134.00 13.2
07/31/2014 08:00 5.06 76 59 -- 12 77 -- -- -- -- 368.00 13.5
07/31/2014 09:00 5.06 80 51 -- 11 89 -- -- -- -- 547.00 13.4
07/31/2014 10:00 5.06 83 43 -- 10 97 -- -- -- -- 700.00 13.4
07/31/2014 11:00 5.06 87 36 -- 9 103 -- -- -- -- 810.00 13.4
07/31/2014 12:00 5.06 91 32 -- 8 107 -- -- -- -- 861.00 13.4
07/31/2014 13:00 5.06 91 36 -- 7 107 -- -- -- -- 859.00 13.4
07/31/2014 14:00 5.06 92 34 -- 7 104 -- -- -- -- 805.00 13.4
07/31/2014 15:00 5.06 88 38 -- 7 93 -- -- -- -- 558.00 13.4
07/31/2014 16:00 5.06 87 37 -- 7 89 -- -- -- -- 279.00 12.8
07/31/2014 17:00 5.06 82 42 -- 7 81 -- -- -- -- 318.00 12.6
07/31/2014 18:00 5.06 77 52 -- 8 77 -- -- -- -- 24.00 12.6
07/31/2014 19:00 5.06 73 55 -- 8 73 -- -- -- -- 12.00 12.5
07/31/2014 20:00 -- -- -- -- -- -- -- -- -- -- -- --

Later | Latest

Warning! This data is preliminary and subject to revision.

Download Data Now Download Data Now | Show MTW Map | 24 Hours MTW Data | Plot all MTW Sensors | Daily MTW Data | MTW Info